Time;durP1;ratioP1;P1;durP2;ratioP2;P2;SDS_P1;SDS_P2;PMS_P1;PMS_P2;Temp;Humidity;BMP_temperature;BMP_pressure;BME280_temperature;BME280_humidity;BME280_pressure;Samples;Min_cycle;Max_cycle;Signal;HPM_P1;HPM_P2
2024/02/24 06:16:24;;;;;;;;;0.00;0.00;;;;;;;;5678329;22;11469;-70
2024/02/24 06:18:50;;;;;;;;;1.00;0.00;;;;;;;;5028502;28;11442;-71
2024/02/24 06:21:15;;;;;;;;;3.50;2.25;;;;;;;;5028017;28;8859;-69
2024/02/24 06:23:40;;;;;;;;;1.75;1.75;;;;;;;;5030443;28;8765;-69
2024/02/24 06:26:05;;;;;;;;;4.75;2.00;;;;;;;;5030465;28;8940;-70
2024/02/24 06:28:32;;;;;;;;;1.00;1.00;;;;;;;;5030300;28;8797;-69
2024/02/24 06:30:57;;;;;;;;;1.00;1.00;;;;;;;;5028967;28;8798;-69
2024/02/24 06:33:23;;;;;;;;;1.00;0.00;;;;;;;;5028561;28;12242;-69
2024/02/24 06:35:48;;;;;;;;;2.00;1.00;;;;;;;;5030082;28;8804;-69
2024/02/24 06:38:13;;;;;;;;;1.00;1.00;;;;;;;;5030136;28;8859;-68
2024/02/24 06:40:38;;;;;;;;;1.00;1.00;;;;;;;;5030099;28;8794;-69
2024/02/24 06:43:03;;;;;;;;;1.50;1.50;;;;;;;;5030192;28;8797;-69
2024/02/24 06:45:32;;;;;;;;;0.50;0.00;;;;;;;;5030276;28;8801;-70
2024/02/24 06:47:57;;;;;;;;;2.00;0.75;;;;;;;;5020662;28;8818;-69
2024/02/24 06:50:22;;;;;;;;;1.00;1.00;;;;;;;;5029880;28;11422;-69
2024/02/24 06:52:47;;;;;;;;;1.00;1.00;;;;;;;;5030003;28;8832;-68
2024/02/24 06:55:13;;;;;;;;;0.75;0.75;;;;;;;;5030209;28;8885;-69
2024/02/24 06:57:38;;;;;;;;;1.75;0.75;;;;;;;;5029983;28;8778;-69
2024/02/24 07:00:03;;;;;;;;;1.00;1.00;;;;;;;;5029874;28;8790;-69
2024/02/24 07:02:29;;;;;;;;;1.00;1.00;;;;;;;;5029610;28;8790;-69
2024/02/24 07:04:54;;;;;;;;;0.75;0.75;;;;;;;;5029700;28;8884;-69
2024/02/24 07:07:19;;;;;;;;;0.50;0.50;;;;;;;;5011859;28;8809;-69
2024/02/24 07:09:47;;;;;;;;;2.00;1.00;;;;;;;;5029574;28;8821;-69
2024/02/24 07:12:12;;;;;;;;;3.75;1.00;;;;;;;;5029434;28;8941;-69
2024/02/24 07:14:37;;;;;;;;;1.00;1.00;;;;;;;;5029609;28;11555;-69
2024/02/24 07:17:07;;;;;;;;;0.00;0.00;;;;;;;;5029615;28;8900;-69
2024/02/24 07:19:32;;;;;;;;;2.00;0.75;;;;;;;;5011403;28;8833;-72
2024/02/24 07:21:58;;;;;;;;;1.00;1.00;;;;;;;;5019601;28;11446;-73
2024/02/24 07:24:23;;;;;;;;;2.00;0.00;;;;;;;;5011769;28;8917;-73
2024/02/24 07:26:49;;;;;;;;;3.00;1.00;;;;;;;;5029160;28;8833;-72
2024/02/24 07:29:14;;;;;;;;;0.00;0.00;;;;;;;;5019621;28;8826;-72
2024/02/24 07:31:39;;;;;;;;;3.00;1.50;;;;;;;;5027965;28;8873;-71
2024/02/24 07:34:04;;;;;;;;;4.00;1.50;;;;;;;;5028993;28;8814;-71
2024/02/24 07:36:30;;;;;;;;;7.00;2.00;;;;;;;;5029330;28;8899;-76
2024/02/24 07:38:58;;;;;;;;;1.00;1.00;;;;;;;;5026635;28;8798;-70
2024/02/24 07:41:23;;;;;;;;;1.00;1.00;;;;;;;;5029685;28;8806;-72
2024/02/24 07:43:49;;;;;;;;;9.25;9.00;;;;;;;;5029134;28;11514;-72
2024/02/24 07:46:29;;;;;;;;;2.00;1.00;;;;;;;;5029262;28;8805;-68
2024/02/24 07:48:55;;;;;;;;;1.00;1.00;;;;;;;;5029330;28;8798;-70
2024/02/24 07:51:21;;;;;;;;;0.75;0.75;;;;;;;;5029338;28;11453;-69
2024/02/24 07:53:53;;;;;;;;;1.25;1.25;;;;;;;;5029531;28;9609;-70
2024/02/24 07:56:22;;;;;;;;;6.25;2.00;;;;;;;;5029595;28;8867;-71
2024/02/24 07:58:48;;;;;;;;;1.00;1.00;;;;;;;;5030703;28;11422;-73
2024/02/24 08:01:13;;;;;;;;;30.25;24.75;;;;;;;;5038295;28;12071;-73
2024/02/24 08:03:38;;;;;;;;;9.00;6.50;;;;;;;;5037552;28;8795;-73
2024/02/24 08:06:04;;;;;;;;;60.00;36.00;;;;;;;;5016247;28;8825;-70
2024/02/24 08:08:30;;;;;;;;;27.75;16.00;;;;;;;;5021138;28;8826;-72
2024/02/24 08:10:55;;;;;;;;;1.50;1.00;;;;;;;;5042359;28;8817;-71
2024/02/24 08:13:20;;;;;;;;;4.50;3.00;;;;;;;;5040776;28;8895;-71
2024/02/24 08:15:46;;;;;;;;;7.50;2.00;;;;;;;;5042370;28;8917;-74
2024/02/24 08:18:11;;;;;;;;;1.00;0.75;;;;;;;;5021011;28;8846;-71
2024/02/24 08:20:36;;;;;;;;;21.75;10.50;;;;;;;;5031851;28;9519;-73
2024/02/24 08:23:01;;;;;;;;;5.00;1.00;;;;;;;;5031015;28;8834;-74
2024/02/24 08:25:27;;;;;;;;;9.25;6.00;;;;;;;;5032246;28;8906;-69
2024/02/24 08:27:52;;;;;;;;;4.25;1.00;;;;;;;;5030889;28;8838;-69
2024/02/24 08:30:18;;;;;;;;;53.50;30.75;;;;;;;;5031880;28;8818;-72
2024/02/24 08:32:43;;;;;;;;;6.50;5.25;;;;;;;;5031946;28;8888;-74
2024/02/24 08:35:08;;;;;;;;;2.00;1.00;;;;;;;;5032323;28;8797;-73
2024/02/24 08:37:33;;;;;;;;;3.75;1.00;;;;;;;;5032283;28;8793;-73
2024/02/24 08:39:59;;;;;;;;;2.00;2.00;;;;;;;;5032246;28;8781;-75
2024/02/24 08:42:24;;;;;;;;;32.25;20.75;;;;;;;;5030487;28;8805;-77
2024/02/24 08:44:49;;;;;;;;;11.75;9.00;;;;;;;;5037094;28;8864;-69
2024/02/24 08:47:14;;;;;;;;;4.25;3.75;;;;;;;;5036577;28;8810;-72
2024/02/24 08:49:40;;;;;;;;;1.50;1.00;;;;;;;;5032013;28;9023;-76
2024/02/24 08:52:05;;;;;;;;;2.25;2.00;;;;;;;;5013921;28;8867;-80
2024/02/24 08:54:32;;;;;;;;;1.75;1.75;;;;;;;;5018849;28;8817;-78
2024/02/24 08:56:57;;;;;;;;;3.75;3.00;;;;;;;;5031598;28;8777;-72
2024/02/24 08:59:25;;;;;;;;;4.75;3.50;;;;;;;;5030587;28;12217;-72
2024/02/24 09:01:54;;;;;;;;;3.50;2.00;;;;;;;;5031268;28;8798;-72
2024/02/24 09:04:19;;;;;;;;;28.25;15.25;;;;;;;;5029517;28;11348;-73
2024/02/24 09:06:44;;;;;;;;;4.25;4.25;;;;;;;;5013335;28;11492;-72
2024/02/24 09:09:14;;;;;;;;;3.50;1.00;;;;;;;;5013736;28;8802;-71
2024/02/24 09:11:39;;;;;;;;;3.50;1.50;;;;;;;;5031054;28;8849;-73
2024/02/24 09:14:05;;;;;;;;;25.50;19.75;;;;;;;;5029005;28;11451;-78
2024/02/24 09:16:30;;;;;;;;;4.25;3.50;;;;;;;;5013214;28;8945;-76
2024/02/24 09:18:55;;;;;;;;;1.75;1.50;;;;;;;;5013369;28;8841;-74
2024/02/24 09:21:20;;;;;;;;;13.25;7.50;;;;;;;;5030915;28;8782;-74
2024/02/24 09:23:46;;;;;;;;;38.50;36.00;;;;;;;;5029368;28;8779;-69
2024/02/24 09:26:11;;;;;;;;;2.00;2.00;;;;;;;;5031400;28;8876;-68
2024/02/24 09:28:36;;;;;;;;;1.25;1.00;;;;;;;;5030421;28;8912;-69
2024/02/24 09:31:01;;;;;;;;;2.25;2.00;;;;;;;;5030821;28;8790;-72
2024/02/24 09:33:27;;;;;;;;;1.25;1.25;;;;;;;;5036039;28;8838;-72
2024/02/24 09:35:52;;;;;;;;;0.00;0.00;;;;;;;;5039126;28;8822;-76
2024/02/24 09:38:17;;;;;;;;;1.00;0.75;;;;;;;;5024609;28;8846;-78
2024/02/24 09:40:42;;;;;;;;;1.00;0.25;;;;;;;;5041134;28;8802;-77
2024/02/24 09:43:08;;;;;;;;;5.50;4.00;;;;;;;;5012732;28;8822;-69
2024/02/24 09:45:43;;;;;;;;;4.25;3.00;;;;;;;;5033332;28;8932;-70
2024/02/24 09:48:10;;;;;;;;;0.00;0.00;;;;;;;;5040141;28;8832;-70
2024/02/24 09:50:35;;;;;;;;;0.00;0.00;;;;;;;;5032887;28;10468;-71
2024/02/24 09:53:00;;;;;;;;;0.50;0.00;;;;;;;;5050686;28;10208;-70
2024/02/24 09:55:28;;;;;;;;;1.75;0.00;;;;;;;;5050613;28;8768;-71
2024/02/24 09:58:00;;;;;;;;;3.00;0.00;;;;;;;;5049725;28;8788;-69
2024/02/24 10:00:25;;;;;;;;;0.00;0.00;;;;;;;;5049843;28;9626;-71
2024/02/24 10:02:51;;;;;;;;;0.00;0.00;;;;;;;;5049987;28;9627;-69
2024/02/24 10:05:22;;;;;;;;;1.00;1.00;;;;;;;;5050125;28;8792;-70
2024/02/24 10:07:47;;;;;;;;;0.00;0.00;;;;;;;;5050056;28;8792;-68
2024/02/24 10:10:16;;;;;;;;;1.00;0.00;;;;;;;;5050149;28;9576;-69
2024/02/24 10:13:01;;;;;;;;;0.00;0.00;;;;;;;;5050314;28;9545;-66
2024/02/24 10:15:26;;;;;;;;;0.00;0.00;;;;;;;;5050673;28;9513;-69
2024/02/24 10:18:01;;;;;;;;;1.75;0.75;;;;;;;;5039891;28;9508;-70
2024/02/24 10:20:28;;;;;;;;;1.00;1.00;;;;;;;;5012534;28;8798;-67
2024/02/24 10:22:54;;;;;;;;;1.00;0.00;;;;;;;;5012559;28;9485;-68
2024/02/24 10:25:25;;;;;;;;;0.50;0.50;;;;;;;;5030164;28;9492;-72
2024/02/24 10:27:50;;;;;;;;;1.00;0.00;;;;;;;;5030284;28;9512;-71
2024/02/24 10:30:15;;;;;;;;;0.00;0.00;;;;;;;;5030142;28;9456;-71
2024/02/24 10:32:44;;;;;;;;;0.00;0.00;;;;;;;;5029125;28;8837;-70
2024/02/24 10:35:10;;;;;;;;;0.00;0.00;;;;;;;;5032653;28;8814;-72
2024/02/24 10:37:38;;;;;;;;;0.00;0.00;;;;;;;;5044011;28;9045;-71
2024/02/24 10:40:04;;;;;;;;;0.00;0.00;;;;;;;;5050075;28;8784;-69
2024/02/24 10:42:30;;;;;;;;;0.00;0.00;;;;;;;;5050244;28;9490;-72
2024/02/24 10:44:55;;;;;;;;;0.00;0.00;;;;;;;;5044131;28;8878;-72
2024/02/24 10:47:21;;;;;;;;;0.00;0.00;;;;;;;;5038533;28;8876;-71
2024/02/24 10:49:46;;;;;;;;;0.67;0.00;;;;;;;;5039058;28;8822;-71
2024/02/24 10:52:12;;;;;;;;;0.00;0.00;;;;;;;;5040294;28;8951;-71
2024/02/24 10:54:39;;;;;;;;;0.00;0.00;;;;;;;;5038880;28;8825;-71
2024/02/24 10:57:05;;;;;;;;;0.00;0.00;;;;;;;;5039634;28;8768;-71
2024/02/24 10:59:31;;;;;;;;;0.00;0.00;;;;;;;;5039185;28;8797;-70
2024/02/24 11:02:03;;;;;;;;;0.00;0.00;;;;;;;;5047180;28;9374;-72
2024/02/24 11:04:29;;;;;;;;;0.00;0.00;;;;;;;;5031676;28;8930;-68
2024/02/24 11:06:55;;;;;;;;;1.00;0.00;;;;;;;;5049634;28;8995;-69
2024/02/24 11:09:25;;;;;;;;;2.00;0.00;;;;;;;;5049805;28;8788;-67
2024/02/24 11:11:51;;;;;;;;;0.00;0.00;;;;;;;;5046397;28;9146;-68
2024/02/24 11:14:22;;;;;;;;;0.00;0.00;;;;;;;;5046815;28;9317;-69
2024/02/24 11:16:48;;;;;;;;;4.25;3.00;;;;;;;;5048035;28;8773;-74
2024/02/24 11:19:33;;;;;;;;;2.00;1.25;;;;;;;;5011379;28;9713;-75
2024/02/24 11:22:02;;;;;;;;;33.50;30.25;;;;;;;;5007658;28;9816;-75
2024/02/24 11:24:34;;;;;;;;;10.00;10.00;;;;;;;;5008542;28;11587;-76
2024/02/24 11:27:01;;;;;;;;;5.50;5.00;;;;;;;;5037882;28;10723;-75
2024/02/24 11:29:27;;;;;;;;;2.00;2.00;;;;;;;;5038798;28;10146;-76
2024/02/24 11:32:03;;;;;;;;;3.00;2.25;;;;;;;;5039887;28;10240;-76
2024/02/24 11:34:31;;;;;;;;;2.00;2.00;;;;;;;;5037382;28;10108;-77
2024/02/24 11:36:59;;;;;;;;;2.25;2.25;;;;;;;;5038773;28;10141;-68
2024/02/24 11:39:26;;;;;;;;;1.25;1.25;;;;;;;;5031092;28;10200;-69
2024/02/24 11:41:51;;;;;;;;;2.75;1.00;;;;;;;;5029451;28;9963;-67
2024/02/24 11:44:17;;;;;;;;;2.00;2.00;;;;;;;;5029279;28;10019;-67
2024/02/24 11:46:46;;;;;;;;;1.75;1.75;;;;;;;;5030201;28;8798;-67
2024/02/24 11:49:11;;;;;;;;;3.00;3.00;;;;;;;;5032934;28;9527;-69
2024/02/24 11:51:37;;;;;;;;;2.00;2.00;;;;;;;;5032466;28;10474;-68
2024/02/24 11:54:03;;;;;;;;;4.00;1.50;;;;;;;;5032055;28;8818;-69
2024/02/24 11:56:29;;;;;;;;;3.50;3.00;;;;;;;;5032975;28;11484;-69
2024/02/24 11:58:55;;;;;;;;;4.50;4.00;;;;;;;;5032946;28;10286;-68
2024/02/24 12:01:20;;;;;;;;;5.50;3.00;;;;;;;;5032760;28;9486;-67
2024/02/24 12:03:59;;;;;;;;;2.25;2.00;;;;;;;;5030492;28;8810;-69
2024/02/24 12:06:25;;;;;;;;;2.75;2.00;;;;;;;;5033182;28;8924;-67
2024/02/24 12:08:51;;;;;;;;;1.75;1.25;;;;;;;;5032789;28;10361;-67
2024/02/24 12:11:16;;;;;;;;;2.00;2.00;;;;;;;;5032489;28;10233;-70
2024/02/24 12:13:42;;;;;;;;;0.75;0.75;;;;;;;;5035294;28;8804;-71
2024/02/24 12:16:07;;;;;;;;;3.50;1.25;;;;;;;;5052524;28;9564;-72
2024/02/24 12:18:33;;;;;;;;;2.50;2.50;;;;;;;;5036092;28;9480;-73
2024/02/24 12:20:58;;;;;;;;;1.00;1.00;;;;;;;;5032540;28;8806;-71
2024/02/24 12:23:23;;;;;;;;;3.00;3.00;;;;;;;;5016094;28;8817;-76
2024/02/24 12:25:49;;;;;;;;;2.00;2.00;;;;;;;;5014819;28;8843;-76
2024/02/24 12:28:15;;;;;;;;;2.25;2.00;;;;;;;;5032433;28;8790;-72
2024/02/24 12:30:44;;;;;;;;;3.00;1.00;;;;;;;;5014472;28;8817;-68
2024/02/24 12:33:16;;;;;;;;;2.00;2.00;;;;;;;;5029914;28;10570;-68
2024/02/24 12:35:41;;;;;;;;;2.50;2.00;;;;;;;;5032288;28;10773;-69
2024/02/24 12:38:08;;;;;;;;;2.00;2.00;;;;;;;;5034440;28;10644;-70
2024/02/24 12:40:36;;;;;;;;;24.25;22.00;;;;;;;;5032144;28;8790;-65
2024/02/24 12:43:04;;;;;;;;;33.00;24.50;;;;;;;;5030241;28;11397;-66
2024/02/24 12:45:30;;;;;;;;;13.00;11.25;;;;;;;;5030670;28;11432;-67
2024/02/24 12:47:55;;;;;;;;;3.00;3.00;;;;;;;;5031612;28;11373;-71
2024/02/24 12:50:24;;;;;;;;;3.25;2.50;;;;;;;;5032086;28;9609;-72
2024/02/24 12:52:55;;;;;;;;;3.75;0.00;;;;;;;;5029791;28;8833;-69
2024/02/24 12:55:20;;;;;;;;;1.00;1.00;;;;;;;;5031602;28;10883;-70
2024/02/24 12:57:46;;;;;;;;;2.75;1.50;;;;;;;;5031883;28;10789;-69
2024/02/24 13:00:12;;;;;;;;;7.75;3.00;;;;;;;;5031890;28;9468;-72
2024/02/24 13:02:37;;;;;;;;;7.50;5.75;;;;;;;;5029580;28;8817;-70
2024/02/24 13:05:03;;;;;;;;;3.00;1.00;;;;;;;;5031741;28;8774;-69
2024/02/24 13:07:28;;;;;;;;;5.75;2.00;;;;;;;;5031618;28;8817;-68
2024/02/24 13:09:54;;;;;;;;;0.00;0.00;;;;;;;;5039237;28;8795;-70
2024/02/24 13:12:19;;;;;;;;;1.50;1.00;;;;;;;;5021372;28;8830;-70
2024/02/24 13:14:44;;;;;;;;;3.00;1.50;;;;;;;;5037951;28;9629;-70
2024/02/24 13:17:10;;;;;;;;;0.25;0.00;;;;;;;;5040430;28;8845;-70
2024/02/24 13:19:38;;;;;;;;;1.00;1.00;;;;;;;;5040305;28;8796;-70
2024/02/24 13:22:03;;;;;;;;;0.75;0.00;;;;;;;;5037603;28;8802;-72
2024/02/24 13:24:28;;;;;;;;;0.25;0.25;;;;;;;;5037141;28;11155;-72
2024/02/24 13:26:57;;;;;;;;;0.50;0.00;;;;;;;;5041339;28;8909;-70
2024/02/24 13:29:22;;;;;;;;;0.00;0.00;;;;;;;;5039755;28;8825;-70
2024/02/24 13:31:50;;;;;;;;;1.00;0.00;;;;;;;;5040979;28;11164;-71
2024/02/24 13:34:16;;;;;;;;;1.00;0.50;;;;;;;;5035392;28;8774;-65
2024/02/24 13:36:42;;;;;;;;;0.00;0.00;;;;;;;;5031312;28;11008;-73
2024/02/24 13:39:07;;;;;;;;;1.50;1.00;;;;;;;;5015319;28;8813;-70
2024/02/24 13:41:32;;;;;;;;;1.00;1.00;;;;;;;;5030951;28;8805;-68
2024/02/24 13:43:58;;;;;;;;;2.00;2.00;;;;;;;;5029224;28;8794;-77
2024/02/24 13:46:24;;;;;;;;;3.00;1.25;;;;;;;;5041004;28;8803;-75
2024/02/24 13:48:59;;;;;;;;;1.00;1.00;;;;;;;;5038745;28;8804;-78
2024/02/24 13:51:25;;;;;;;;;0.25;0.25;;;;;;;;5038160;28;8897;-77
2024/02/24 13:53:51;;;;;;;;;1.50;1.00;;;;;;;;5009279;28;11107;-78
2024/02/24 13:56:16;;;;;;;;;4.00;1.00;;;;;;;;5023485;28;11006;-80
2024/02/24 13:58:44;;;;;;;;;2.00;2.00;;;;;;;;5040092;28;8796;-77
2024/02/24 14:01:10;;;;;;;;;1.50;1.00;;;;;;;;5040620;28;8770;-77
2024/02/24 14:03:37;;;;;;;;;1.00;1.00;;;;;;;;5037419;28;11048;-79
2024/02/24 14:06:04;;;;;;;;;1.00;1.00;;;;;;;;5035148;28;8928;-78
2024/02/24 14:08:29;;;;;;;;;2.00;2.00;;;;;;;;5032925;28;11117;-78
2024/02/24 14:10:55;;;;;;;;;1.00;1.00;;;;;;;;5030919;28;11279;-76
2024/02/24 14:13:20;;;;;;;;;1.00;1.00;;;;;;;;5028715;28;8857;-77
2024/02/24 14:15:49;;;;;;;;;1.00;1.00;;;;;;;;5030442;28;8821;-78
2024/02/24 14:18:14;;;;;;;;;0.25;0.25;;;;;;;;5024351;28;8806;-73
2024/02/24 14:20:39;;;;;;;;;0.25;0.25;;;;;;;;5028840;28;12155;-73
2024/02/24 14:23:05;;;;;;;;;0.00;0.00;;;;;;;;5027810;28;9582;-75
2024/02/24 14:25:31;;;;;;;;;0.75;0.75;;;;;;;;5029458;28;8817;-73
2024/02/24 14:27:56;;;;;;;;;1.25;1.25;;;;;;;;5029258;28;8825;-76
2024/02/24 14:30:22;;;;;;;;;2.00;1.50;;;;;;;;5029206;28;11416;-76
2024/02/24 14:32:47;;;;;;;;;1.00;0.00;;;;;;;;5028585;28;8863;-76
2024/02/24 14:35:13;;;;;;;;;1.50;1.00;;;;;;;;5018811;28;8826;-77
2024/02/24 14:37:42;;;;;;;;;1.00;0.00;;;;;;;;5029603;28;8817;-75
2024/02/24 14:40:11;;;;;;;;;0.50;0.00;;;;;;;;5030100;28;11541;-75
2024/02/24 14:42:36;;;;;;;;;0.50;0.50;;;;;;;;5027085;28;11440;-70
2024/02/24 14:45:05;;;;;;;;;0.00;0.00;;;;;;;;5028841;28;11408;-74
2024/02/24 14:47:33;;;;;;;;;2.00;0.75;;;;;;;;5029723;28;9567;-76
2024/02/24 14:50:02;;;;;;;;;1.00;1.00;;;;;;;;5030746;28;12065;-78
2024/02/24 14:52:27;;;;;;;;;1.00;1.00;;;;;;;;5019363;28;11350;-78
2024/02/24 14:54:52;;;;;;;;;2.50;2.50;;;;;;;;5035983;28;11464;-75
2024/02/24 14:57:18;;;;;;;;;2.75;1.00;;;;;;;;5033306;28;8844;-78
2024/02/24 14:59:46;;;;;;;;;0.00;0.00;;;;;;;;5028063;28;8787;-75
2024/02/24 15:02:14;;;;;;;;;1.00;0.00;;;;;;;;5026641;28;8893;-78
2024/02/24 15:04:39;;;;;;;;;0.00;0.00;;;;;;;;5030809;28;11329;-78
2024/02/24 15:07:05;;;;;;;;;2.00;2.00;;;;;;;;5033760;28;12187;-75
2024/02/24 15:09:30;;;;;;;;;2.00;2.00;;;;;;;;5034089;28;8786;-75
2024/02/24 15:11:56;;;;;;;;;2.00;2.00;;;;;;;;5031847;28;8837;-75
2024/02/24 15:14:22;;;;;;;;;1.00;1.00;;;;;;;;5026691;28;8806;-77
2024/02/24 15:16:48;;;;;;;;;1.00;1.00;;;;;;;;5042307;22;9880;-75
2024/02/24 15:19:17;;;;;;;;;1.00;1.00;;;;;;;;5012254;28;11359;-79
2024/02/24 15:21:42;;;;;;;;;1.00;1.00;;;;;;;;5030562;28;9524;-75
2024/02/24 15:24:08;;;;;;;;;2.00;1.00;;;;;;;;5031365;28;11356;-76
2024/02/24 15:26:33;;;;;;;;;0.00;0.00;;;;;;;;5033653;28;8798;-75
2024/02/24 15:29:04;;;;;;;;;0.00;0.00;;;;;;;;5033548;28;8837;-72
2024/02/24 15:31:30;;;;;;;;;0.00;0.00;;;;;;;;5033907;28;8774;-71
2024/02/24 15:33:55;;;;;;;;;1.00;1.00;;;;;;;;5031369;28;11360;-72
2024/02/24 15:36:21;;;;;;;;;0.00;0.00;;;;;;;;5033759;28;8806;-73
2024/02/24 15:38:46;;;;;;;;;2.00;1.00;;;;;;;;5033336;28;8806;-73
2024/02/24 15:41:13;;;;;;;;;7.00;5.50;;;;;;;;5015878;28;8836;-73
2024/02/24 15:43:39;;;;;;;;;2.00;2.00;;;;;;;;5031458;28;8840;-83
2024/02/24 15:46:04;;;;;;;;;2.00;0.75;;;;;;;;5033253;28;11332;-75
2024/02/24 15:48:29;;;;;;;;;1.00;1.00;;;;;;;;5033489;28;8889;-70
2024/02/24 15:50:54;;;;;;;;;2.00;2.00;;;;;;;;5033069;28;8817;-70
2024/02/24 15:53:20;;;;;;;;;2.00;2.00;;;;;;;;5031028;28;8822;-77
2024/02/24 15:55:45;;;;;;;;;10.00;10.00;;;;;;;;5033700;28;8886;-67
2024/02/24 15:58:10;;;;;;;;;6.50;6.00;;;;;;;;5033571;28;8897;-69
2024/02/24 16:00:36;;;;;;;;;5.00;4.50;;;;;;;;5033420;28;8770;-72
2024/02/24 16:03:01;;;;;;;;;5.75;3.50;;;;;;;;5033652;28;8806;-73
2024/02/24 16:05:27;;;;;;;;;8.50;8.00;;;;;;;;5033262;28;12182;-77
2024/02/24 16:07:52;;;;;;;;;5.50;5.50;;;;;;;;5033507;28;8875;-76
2024/02/24 16:10:18;;;;;;;;;10.75;10.00;;;;;;;;5014553;28;8810;-76
2024/02/24 16:12:43;;;;;;;;;8.00;8.00;;;;;;;;5031339;28;9476;-74
2024/02/24 16:15:08;;;;;;;;;4.00;3.00;;;;;;;;5031471;28;8794;-81
2024/02/24 16:17:34;;;;;;;;;2.00;2.00;;;;;;;;5035974;22;8891;-76
2024/02/24 16:19:59;;;;;;;;;3.75;3.75;;;;;;;;5011620;28;8820;-75
2024/02/24 16:22:24;;;;;;;;;3.75;3.75;;;;;;;;5011583;28;8820;-76
2024/02/24 16:24:49;;;;;;;;;6.50;5.00;;;;;;;;5010394;28;8830;-74
2024/02/24 16:27:15;;;;;;;;;10.00;9.00;;;;;;;;5012217;28;8843;-73
2024/02/24 16:29:40;;;;;;;;;5.00;4.00;;;;;;;;5012802;28;9526;-77
2024/02/24 16:32:06;;;;;;;;;15.00;12.00;;;;;;;;5013627;28;8854;-76
2024/02/24 16:34:31;;;;;;;;;5.00;4.00;;;;;;;;5013426;28;8793;-75
2024/02/24 16:36:56;;;;;;;;;4.75;3.75;;;;;;;;5011269;28;8812;-78
2024/02/24 16:39:22;;;;;;;;;7.25;5.25;;;;;;;;5012147;28;8828;-75
2024/02/24 16:41:49;;;;;;;;;2.00;2.00;;;;;;;;5009028;28;8925;-75
2024/02/24 16:44:14;;;;;;;;;3.00;3.00;;;;;;;;5012956;28;11502;-74
2024/02/24 16:46:46;;;;;;;;;2.00;2.00;;;;;;;;5010722;28;11432;-82
2024/02/24 16:49:11;;;;;;;;;4.00;3.00;;;;;;;;5012866;28;8828;-75
2024/02/24 16:51:37;;;;;;;;;5.00;4.00;;;;;;;;5012959;28;11424;-76
2024/02/24 16:54:02;;;;;;;;;4.00;4.00;;;;;;;;5012036;28;8882;-79
2024/02/24 16:56:27;;;;;;;;;5.50;4.75;;;;;;;;5010700;28;8820;-75
2024/02/24 16:58:53;;;;;;;;;4.00;4.00;;;;;;;;5011677;28;8804;-73
2024/02/24 17:01:20;;;;;;;;;5.75;5.00;;;;;;;;5013025;28;8825;-74
2024/02/24 17:03:45;;;;;;;;;5.75;4.00;;;;;;;;5013230;28;9554;-72
2024/02/24 17:06:10;;;;;;;;;6.00;4.50;;;;;;;;5010882;28;11443;-76
2024/02/24 17:08:36;;;;;;;;;4.00;4.00;;;;;;;;5012478;28;8878;-71
2024/02/24 17:11:01;;;;;;;;;4.00;4.00;;;;;;;;5011182;28;8846;-70
2024/02/24 17:13:26;;;;;;;;;6.00;5.00;;;;;;;;5012377;28;8836;-71
2024/02/24 17:15:51;;;;;;;;;5.50;4.00;;;;;;;;5010996;28;9594;-72
2024/02/24 17:18:19;;;;;;;;;3.75;3.75;;;;;;;;5012581;28;8844;-72
2024/02/24 17:20:44;;;;;;;;;5.00;5.00;;;;;;;;5010998;28;8828;-73
2024/02/24 17:23:12;;;;;;;;;8.25;5.50;;;;;;;;5012211;28;11476;-73
2024/02/24 17:25:37;;;;;;;;;4.00;4.00;;;;;;;;5010105;28;9417;-71
2024/02/24 17:28:08;;;;;;;;;5.00;4.50;;;;;;;;5017098;28;11555;-69
2024/02/24 17:30:38;;;;;;;;;5.00;5.00;;;;;;;;5023949;28;9010;-72
2024/02/24 17:33:04;;;;;;;;;4.00;3.00;;;;;;;;5023217;28;11445;-71
2024/02/24 17:35:30;;;;;;;;;4.50;4.00;;;;;;;;5014141;28;12325;-70
2024/02/24 17:37:57;;;;;;;;;2.00;2.00;;;;;;;;5019687;28;8808;-73
2024/02/24 17:40:22;;;;;;;;;4.50;4.25;;;;;;;;5022256;28;8823;-73
2024/02/24 17:42:48;;;;;;;;;4.50;4.00;;;;;;;;5019794;28;11468;-71
2024/02/24 17:45:13;;;;;;;;;3.25;3.25;;;;;;;;5010025;28;8858;-71
2024/02/24 17:47:39;;;;;;;;;5.50;5.00;;;;;;;;4999937;28;10167;-72
2024/02/24 17:50:04;;;;;;;;;4.00;4.00;;;;;;;;5050064;28;8811;-72
2024/02/24 17:52:31;;;;;;;;;5.25;4.00;;;;;;;;5051373;28;9526;-74
2024/02/24 17:54:58;;;;;;;;;6.00;5.00;;;;;;;;5050494;28;8787;-75
2024/02/24 17:57:24;;;;;;;;;8.00;4.00;;;;;;;;5050465;28;11424;-75
2024/02/24 17:59:49;;;;;;;;;4.00;3.75;;;;;;;;5051533;28;11582;-75
2024/02/24 18:02:14;;;;;;;;;3.00;3.00;;;;;;;;5051359;28;8803;-74
2024/02/24 18:04:43;;;;;;;;;4.75;4.75;;;;;;;;5046688;28;9848;-75
2024/02/24 18:07:08;;;;;;;;;7.50;5.50;;;;;;;;5047701;28;8901;-75
2024/02/24 18:09:35;;;;;;;;;8.00;8.00;;;;;;;;5049689;28;11441;-75
2024/02/24 18:12:00;;;;;;;;;10.00;9.75;;;;;;;;5050961;28;8865;-76
2024/02/24 18:14:26;;;;;;;;;11.50;10.25;;;;;;;;5051103;28;11482;-78
2024/02/24 18:16:51;;;;;;;;;12.75;11.25;;;;;;;;5062682;22;8810;-69
2024/02/24 18:19:16;;;;;;;;;10.25;10.25;;;;;;;;5027922;28;8814;-66
2024/02/24 18:21:42;;;;;;;;;8.00;8.00;;;;;;;;5030130;28;8817;-67
2024/02/24 18:24:07;;;;;;;;;10.75;10.00;;;;;;;;5030165;28;8801;-67
2024/02/24 18:26:32;;;;;;;;;13.25;11.00;;;;;;;;5028299;28;8851;-64
2024/02/24 18:29:00;;;;;;;;;17.75;15.50;;;;;;;;5029901;28;8809;-66
2024/02/24 18:31:27;;;;;;;;;22.00;21.00;;;;;;;;5030194;28;8793;-68
2024/02/24 18:33:52;;;;;;;;;20.25;18.25;;;;;;;;5029961;28;11992;-65
2024/02/24 18:36:18;;;;;;;;;16.50;15.50;;;;;;;;5027668;28;11519;-65
2024/02/24 18:38:47;;;;;;;;;19.50;16.00;;;;;;;;5029524;28;8821;-64
2024/02/24 18:41:12;;;;;;;;;15.50;13.50;;;;;;;;5038427;28;8821;-66
2024/02/24 18:43:38;;;;;;;;;17.75;16.00;;;;;;;;5048069;28;12286;-65
2024/02/24 18:46:03;;;;;;;;;13.50;13.50;;;;;;;;5036328;28;8809;-66
2024/02/24 18:48:28;;;;;;;;;14.25;12.75;;;;;;;;5028395;28;8790;-66
2024/02/24 18:50:54;;;;;;;;;16.25;14.00;;;;;;;;5028750;28;8813;-66
2024/02/24 18:53:20;;;;;;;;;14.50;11.00;;;;;;;;5027713;28;8821;-66
2024/02/24 18:55:45;;;;;;;;;17.00;14.50;;;;;;;;5027340;28;11494;-68
2024/02/24 18:58:10;;;;;;;;;13.75;12.00;;;;;;;;5029397;28;8801;-67
2024/02/24 19:00:36;;;;;;;;;10.00;9.00;;;;;;;;5029647;28;8789;-67
2024/02/24 19:03:01;;;;;;;;;12.25;11.75;;;;;;;;5029583;28;8817;-67
2024/02/24 19:05:30;;;;;;;;;9.50;9.50;;;;;;;;5042447;28;8926;-65
2024/02/24 19:07:55;;;;;;;;;10.00;9.25;;;;;;;;5029143;28;11788;-65
2024/02/24 19:10:21;;;;;;;;;12.00;12.00;;;;;;;;5029202;28;11608;-67
2024/02/24 19:12:47;;;;;;;;;8.00;8.00;;;;;;;;5029491;28;8849;-67
2024/02/24 19:15:12;;;;;;;;;15.50;13.00;;;;;;;;5027828;28;8841;-69
2024/02/24 19:17:37;;;;;;;;;16.75;16.00;;;;;;;;5029004;28;8841;-66
2024/02/24 19:20:06;;;;;;;;;12.75;12.75;;;;;;;;5029505;28;8900;-68
2024/02/24 19:22:31;;;;;;;;;15.50;13.00;;;;;;;;5029191;28;8851;-69
2024/02/24 19:24:57;;;;;;;;;19.50;19.50;;;;;;;;5026284;28;11618;-66
2024/02/24 19:27:22;;;;;;;;;16.00;16.00;;;;;;;;5028071;28;8817;-66
2024/02/24 19:29:47;;;;;;;;;26.50;21.50;;;;;;;;5029359;28;8831;-66
2024/02/24 19:32:13;;;;;;;;;39.50;29.25;;;;;;;;5029279;28;8834;-66
2024/02/24 19:34:38;;;;;;;;;21.00;17.25;;;;;;;;5029102;28;8777;-67
2024/02/24 19:37:07;;;;;;;;;20.00;17.25;;;;;;;;5027062;28;8987;-67
2024/02/24 19:39:33;;;;;;;;;20.00;17.00;;;;;;;;5029180;28;8801;-66
2024/02/24 19:41:58;;;;;;;;;24.50;21.75;;;;;;;;5029249;28;12365;-67
2024/02/24 19:44:23;;;;;;;;;27.50;24.00;;;;;;;;5044521;28;8806;-64
2024/02/24 19:46:49;;;;;;;;;21.50;20.75;;;;;;;;5027575;28;8958;-65
2024/02/24 19:49:15;;;;;;;;;24.75;23.50;;;;;;;;5028830;28;8793;-64
2024/02/24 19:51:40;;;;;;;;;23.25;19.75;;;;;;;;5028974;28;8801;-66
2024/02/24 19:54:06;;;;;;;;;23.25;20.25;;;;;;;;5029050;28;11543;-65
2024/02/24 19:56:31;;;;;;;;;22.25;21.00;;;;;;;;5027345;28;8924;-66
2024/02/24 19:58:56;;;;;;;;;26.75;24.25;;;;;;;;5028449;28;8844;-65
2024/02/24 20:01:22;;;;;;;;;22.00;20.25;;;;;;;;5034291;28;8937;-69
2024/02/24 20:03:47;;;;;;;;;21.25;20.25;;;;;;;;5041924;28;8834;-67
2024/02/24 20:06:12;;;;;;;;;20.25;20.00;;;;;;;;5038368;28;8829;-66
2024/02/24 20:08:38;;;;;;;;;19.50;19.50;;;;;;;;5030239;28;8841;-67
2024/02/24 20:11:03;;;;;;;;;22.00;21.75;;;;;;;;5045984;28;8821;-67
2024/02/24 20:13:29;;;;;;;;;23.00;21.00;;;;;;;;5032265;28;8837;-67
2024/02/24 20:15:54;;;;;;;;;25.00;21.75;;;;;;;;5030056;28;8836;-66
2024/02/24 20:18:19;;;;;;;;;27.00;21.50;;;;;;;;5031978;28;8853;-66
2024/02/24 20:20:45;;;;;;;;;22.00;21.25;;;;;;;;5032144;28;8794;-67
2024/02/24 20:23:11;;;;;;;;;21.00;20.75;;;;;;;;5032399;28;8805;-67
2024/02/24 20:25:36;;;;;;;;;22.00;20.75;;;;;;;;5029880;28;8995;-65
2024/02/24 20:28:03;;;;;;;;;21.75;20.25;;;;;;;;5031516;28;11544;-66
2024/02/24 20:30:29;;;;;;;;;25.75;22.00;;;;;;;;5031889;28;8802;-67
2024/02/24 20:32:54;;;;;;;;;22.00;21.00;;;;;;;;5037963;28;11560;-66
2024/02/24 20:35:19;;;;;;;;;26.00;22.00;;;;;;;;5034314;28;8810;-67
2024/02/24 20:37:47;;;;;;;;;25.50;21.75;;;;;;;;5031399;28;8840;-65
2024/02/24 20:40:13;;;;;;;;;27.50;26.00;;;;;;;;5032635;28;8844;-63
2024/02/24 20:42:38;;;;;;;;;26.00;24.25;;;;;;;;5039505;28;11564;-66
2024/02/24 20:45:04;;;;;;;;;24.00;22.00;;;;;;;;5035941;28;8798;-65
2024/02/24 20:47:29;;;;;;;;;20.00;19.00;;;;;;;;5030980;28;8827;-65
2024/02/24 20:49:54;;;;;;;;;19.50;16.00;;;;;;;;5031165;28;8808;-65
2024/02/24 20:52:19;;;;;;;;;20.75;20.75;;;;;;;;5031209;28;8829;-65
2024/02/24 20:54:48;;;;;;;;;15.00;14.75;;;;;;;;5031385;28;8770;-65
2024/02/24 20:57:14;;;;;;;;;16.00;13.75;;;;;;;;5029651;28;9663;-66